CA-0561 weather

Griffith Island
Ontario, Canada

Public forecast

Using degrees Celsius for public forecast. Weather courtesy of forecast.io.

METAR (pilot weather report)

Closest report is Wiarton Airport, 10.2 nm (18.8 km) WSW. Retrieved 2019/07/15 19:00 UTC (32 minutes ago):

CYVV 151900Z 23011KT 200V270 15SM FEW044 FEW150 OVC200 26/14 A3005 RMK CU1AC1CS8 CU TR AC TR SLP177 DENSITY ALT 2100FT

TAF (pilot weather forecast)

Closest forecast is Wiarton Airport, 10.2 nm (18.8 km) WSW. Retrieved 2019/07/15 20:00 UTC (0 seconds ago):

TAF CYVV 151938Z 1520/1523 23008KT P6SM FEW040 BKN140 OVC240 TEMPO 1522/1523 4SM SHRA BR BKN040 OVC080 RMK NXT FCST WILL BE ISSUED AT 161045Z